sensor_id;sensor_type;location;lat;lon;timestamp;temperature;humidity
5226;DHT22;2632;51.666;7.146;2023-11-19T00:01:33;11.00;99.90
5226;DHT22;2632;51.666;7.146;2023-11-19T00:04:00;11.00;99.90
5226;DHT22;2632;51.666;7.146;2023-11-19T00:06:27;11.10;99.90
5226;DHT22;2632;51.666;7.146;2023-11-19T00:08:54;11.10;99.90
5226;DHT22;2632;51.666;7.146;2023-11-19T00:11:21;11.10;99.90
5226;DHT22;2632;51.666;7.146;2023-11-19T00:13:47;11.10;99.90
5226;DHT22;2632;51.666;7.146;2023-11-19T00:16:14;11.10;99.90
5226;DHT22;2632;51.666;7.146;2023-11-19T00:18:42;11.10;99.90
5226;DHT22;2632;51.666;7.146;2023-11-19T00:21:10;11.10;99.90
5226;DHT22;2632;51.666;7.146;2023-11-19T00:23:37;11.10;99.90
5226;DHT22;2632;51.666;7.146;2023-11-19T00:26:04;11.10;99.90
5226;DHT22;2632;51.666;7.146;2023-11-19T00:28:32;11.20;99.90
5226;DHT22;2632;51.666;7.146;2023-11-19T00:31:00;11.20;99.90
5226;DHT22;2632;51.666;7.146;2023-11-19T00:33:27;11.20;99.90
5226;DHT22;2632;51.666;7.146;2023-11-19T00:35:53;11.20;99.90
5226;DHT22;2632;51.666;7.146;2023-11-19T00:38:20;11.20;99.90
5226;DHT22;2632;51.666;7.146;2023-11-19T00:40:46;11.20;99.90
5226;DHT22;2632;51.666;7.146;2023-11-19T00:43:13;11.20;99.90
5226;DHT22;2632;51.666;7.146;2023-11-19T00:45:40;11.20;99.90
5226;DHT22;2632;51.666;7.146;2023-11-19T00:48:07;11.30;99.90
5226;DHT22;2632;51.666;7.146;2023-11-19T00:50:33;11.30;99.90
5226;DHT22;2632;51.666;7.146;2023-11-19T00:53:04;11.40;99.90
5226;DHT22;2632;51.666;7.146;2023-11-19T00:55:30;11.40;99.90
5226;DHT22;2632;51.666;7.146;2023-11-19T00:57:57;11.40;99.90
5226;DHT22;2632;51.666;7.146;2023-11-19T01:00:24;11.40;99.90
5226;DHT22;2632;51.666;7.146;2023-11-19T01:02:53;11.50;99.90
5226;DHT22;2632;51.666;7.146;2023-11-19T01:05:20;11.50;99.90
5226;DHT22;2632;51.666;7.146;2023-11-19T01:07:50;11.50;99.90
5226;DHT22;2632;51.666;7.146;2023-11-19T01:10:19;11.50;99.90
5226;DHT22;2632;51.666;7.146;2023-11-19T01:12:46;11.60;99.90
5226;DHT22;2632;51.666;7.146;2023-11-19T01:15:12;11.50;99.90
5226;DHT22;2632;51.666;7.146;2023-11-19T01:17:39;11.60;99.90
5226;DHT22;2632;51.666;7.146;2023-11-19T01:20:18;11.60;99.90
5226;DHT22;2632;51.666;7.146;2023-11-19T01:22:46;11.60;99.90
5226;DHT22;2632;51.666;7.146;2023-11-19T01:25:15;11.60;99.90
5226;DHT22;2632;51.666;7.146;2023-11-19T01:27:41;11.70;99.90
5226;DHT22;2632;51.666;7.146;2023-11-19T01:30:09;11.70;99.90
5226;DHT22;2632;51.666;7.146;2023-11-19T01:32:40;11.70;99.90
5226;DHT22;2632;51.666;7.146;2023-11-19T01:35:07;11.70;99.90
5226;DHT22;2632;51.666;7.146;2023-11-19T01:37:37;11.80;99.90
5226;DHT22;2632;51.666;7.146;2023-11-19T01:40:04;11.80;99.90
5226;DHT22;2632;51.666;7.146;2023-11-19T01:42:41;11.90;99.90
5226;DHT22;2632;51.666;7.146;2023-11-19T01:45:08;11.90;99.90
5226;DHT22;2632;51.666;7.146;2023-11-19T01:47:36;12.00;99.90
5226;DHT22;2632;51.666;7.146;2023-11-19T01:50:04;12.10;99.90
5226;DHT22;2632;51.666;7.146;2023-11-19T01:52:34;12.10;99.90
5226;DHT22;2632;51.666;7.146;2023-11-19T01:55:06;12.20;99.90
5226;DHT22;2632;51.666;7.146;2023-11-19T01:57:35;12.20;99.90
5226;DHT22;2632;51.666;7.146;2023-11-19T02:00:04;12.20;99.90
5226;DHT22;2632;51.666;7.146;2023-11-19T02:02:32;12.20;99.90
5226;DHT22;2632;51.666;7.146;2023-11-19T02:04:59;12.30;99.90
5226;DHT22;2632;51.666;7.146;2023-11-19T02:07:26;12.30;99.90
5226;DHT22;2632;51.666;7.146;2023-11-19T02:09:53;12.30;99.90
5226;DHT22;2632;51.666;7.146;2023-11-19T02:12:20;12.30;99.90
5226;DHT22;2632;51.666;7.146;2023-11-19T02:14:47;12.30;99.90
5226;DHT22;2632;51.666;7.146;2023-11-19T02:17:30;12.30;99.90
5226;DHT22;2632;51.666;7.146;2023-11-19T02:20:00;12.30;99.90
5226;DHT22;2632;51.666;7.146;2023-11-19T02:22:27;12.40;99.90
5226;DHT22;2632;51.666;7.146;2023-11-19T02:25:00;12.40;99.90
5226;DHT22;2632;51.666;7.146;2023-11-19T02:27:46;12.50;99.90
5226;DHT22;2632;51.666;7.146;2023-11-19T02:30:13;12.40;99.90
5226;DHT22;2632;51.666;7.146;2023-11-19T02:32:42;12.40;99.90
5226;DHT22;2632;51.666;7.146;2023-11-19T02:35:09;12.40;99.90
5226;DHT22;2632;51.666;7.146;2023-11-19T02:37:35;12.50;99.90
5226;DHT22;2632;51.666;7.146;2023-11-19T02:40:02;12.50;99.90
5226;DHT22;2632;51.666;7.146;2023-11-19T02:42:30;12.50;99.90
5226;DHT22;2632;51.666;7.146;2023-11-19T02:44:56;12.50;99.90
5226;DHT22;2632;51.666;7.146;2023-11-19T02:47:23;12.50;99.90
5226;DHT22;2632;51.666;7.146;2023-11-19T02:49:51;12.50;99.90
5226;DHT22;2632;51.666;7.146;2023-11-19T02:52:19;12.50;99.90
5226;DHT22;2632;51.666;7.146;2023-11-19T02:54:46;12.50;99.90
5226;DHT22;2632;51.666;7.146;2023-11-19T02:57:12;12.60;99.90
5226;DHT22;2632;51.666;7.146;2023-11-19T02:59:48;12.60;99.90
5226;DHT22;2632;51.666;7.146;2023-11-19T03:02:15;12.50;99.90
5226;DHT22;2632;51.666;7.146;2023-11-19T03:04:42;12.60;99.90
5226;DHT22;2632;51.666;7.146;2023-11-19T03:07:10;12.60;99.90
5226;DHT22;2632;51.666;7.146;2023-11-19T03:09:37;12.60;99.90
5226;DHT22;2632;51.666;7.146;2023-11-19T03:12:07;12.60;99.90
5226;DHT22;2632;51.666;7.146;2023-11-19T03:14:33;12.60;99.90
5226;DHT22;2632;51.666;7.146;2023-11-19T03:17:04;12.50;99.90
5226;DHT22;2632;51.666;7.146;2023-11-19T03:19:31;12.60;99.90
5226;DHT22;2632;51.666;7.146;2023-11-19T03:21:58;12.60;99.90
5226;DHT22;2632;51.666;7.146;2023-11-19T03:24:26;12.60;99.90
5226;DHT22;2632;51.666;7.146;2023-11-19T03:26:53;12.60;99.90
5226;DHT22;2632;51.666;7.146;2023-11-19T03:29:19;12.50;99.90
5226;DHT22;2632;51.666;7.146;2023-11-19T03:31:46;12.60;99.90
5226;DHT22;2632;51.666;7.146;2023-11-19T03:34:12;12.60;99.90
5226;DHT22;2632;51.666;7.146;2023-11-19T03:36:39;12.50;99.90
5226;DHT22;2632;51.666;7.146;2023-11-19T03:39:06;12.50;99.90
5226;DHT22;2632;51.666;7.146;2023-11-19T03:41:33;12.50;99.90
5226;DHT22;2632;51.666;7.146;2023-11-19T03:44:03;12.60;99.90
5226;DHT22;2632;51.666;7.146;2023-11-19T03:46:29;12.60;99.90
5226;DHT22;2632;51.666;7.146;2023-11-19T03:48:56;12.60;99.90
5226;DHT22;2632;51.666;7.146;2023-11-19T03:51:23;12.60;99.90
5226;DHT22;2632;51.666;7.146;2023-11-19T03:53:49;12.60;99.90
5226;DHT22;2632;51.666;7.146;2023-11-19T03:56:16;12.70;99.90
5226;DHT22;2632;51.666;7.146;2023-11-19T03:58:43;12.60;99.90
5226;DHT22;2632;51.666;7.146;2023-11-19T04:01:12;12.60;99.90
5226;DHT22;2632;51.666;7.146;2023-11-19T04:03:42;12.60;99.90
5226;DHT22;2632;51.666;7.146;2023-11-19T04:06:12;12.60;99.90
5226;DHT22;2632;51.666;7.146;2023-11-19T04:08:39;12.60;99.90
5226;DHT22;2632;51.666;7.146;2023-11-19T04:11:05;12.60;99.90
5226;DHT22;2632;51.666;7.146;2023-11-19T04:13:32;12.60;99.90
5226;DHT22;2632;51.666;7.146;2023-11-19T04:16:00;12.60;99.90
5226;DHT22;2632;51.666;7.146;2023-11-19T04:18:27;12.50;99.90
5226;DHT22;2632;51.666;7.146;2023-11-19T04:20:54;12.50;99.90
5226;DHT22;2632;51.666;7.146;2023-11-19T04:23:21;12.40;99.90
5226;DHT22;2632;51.666;7.146;2023-11-19T04:25:47;12.40;99.90
5226;DHT22;2632;51.666;7.146;2023-11-19T04:28:14;12.40;99.90
5226;DHT22;2632;51.666;7.146;2023-11-19T04:30:41;12.40;99.90
5226;DHT22;2632;51.666;7.146;2023-11-19T04:33:08;12.40;99.90
5226;DHT22;2632;51.666;7.146;2023-11-19T04:35:34;12.40;99.90
5226;DHT22;2632;51.666;7.146;2023-11-19T04:38:01;12.30;99.90
5226;DHT22;2632;51.666;7.146;2023-11-19T04:40:28;12.40;99.90
5226;DHT22;2632;51.666;7.146;2023-11-19T04:42:55;12.30;99.90
5226;DHT22;2632;51.666;7.146;2023-11-19T04:45:21;12.40;99.90
5226;DHT22;2632;51.666;7.146;2023-11-19T04:47:48;12.40;99.90
5226;DHT22;2632;51.666;7.146;2023-11-19T04:50:15;12.40;99.90
5226;DHT22;2632;51.666;7.146;2023-11-19T04:52:42;12.40;99.90
5226;DHT22;2632;51.666;7.146;2023-11-19T04:55:12;12.30;99.90
5226;DHT22;2632;51.666;7.146;2023-11-19T04:57:40;12.30;99.90
5226;DHT22;2632;51.666;7.146;2023-11-19T05:00:07;12.20;99.90
5226;DHT22;2632;51.666;7.146;2023-11-19T05:02:37;12.20;99.90
5226;DHT22;2632;51.666;7.146;2023-11-19T05:05:04;12.20;99.90
5226;DHT22;2632;51.666;7.146;2023-11-19T05:07:32;12.10;99.90
5226;DHT22;2632;51.666;7.146;2023-11-19T05:09:58;12.10;99.90
5226;DHT22;2632;51.666;7.146;2023-11-19T05:12:25;12.10;99.90
5226;DHT22;2632;51.666;7.146;2023-11-19T05:14:52;12.10;99.90
5226;DHT22;2632;51.666;7.146;2023-11-19T05:17:19;12.00;99.90
5226;DHT22;2632;51.666;7.146;2023-11-19T05:19:46;12.00;99.90
5226;DHT22;2632;51.666;7.146;2023-11-19T05:22:14;12.00;99.90
5226;DHT22;2632;51.666;7.146;2023-11-19T05:24:41;12.00;99.90
5226;DHT22;2632;51.666;7.146;2023-11-19T05:27:07;12.00;99.90
5226;DHT22;2632;51.666;7.146;2023-11-19T05:29:34;11.90;99.90
5226;DHT22;2632;51.666;7.146;2023-11-19T05:32:01;11.80;99.90
5226;DHT22;2632;51.666;7.146;2023-11-19T05:34:28;11.90;99.90
5226;DHT22;2632;51.666;7.146;2023-11-19T05:36:55;11.90;99.90
5226;DHT22;2632;51.666;7.146;2023-11-19T05:39:22;11.90;99.90
5226;DHT22;2632;51.666;7.146;2023-11-19T05:41:48;11.90;99.90
5226;DHT22;2632;51.666;7.146;2023-11-19T05:44:15;12.00;99.90
5226;DHT22;2632;51.666;7.146;2023-11-19T05:46:42;12.00;99.90
5226;DHT22;2632;51.666;7.146;2023-11-19T05:49:11;11.90;99.90
5226;DHT22;2632;51.666;7.146;2023-11-19T05:51:38;11.90;99.90
5226;DHT22;2632;51.666;7.146;2023-11-19T05:54:09;12.00;99.90
5226;DHT22;2632;51.666;7.146;2023-11-19T05:56:36;12.00;99.90
5226;DHT22;2632;51.666;7.146;2023-11-19T05:59:03;11.90;99.90
5226;DHT22;2632;51.666;7.146;2023-11-19T06:01:34;11.90;99.90
5226;DHT22;2632;51.666;7.146;2023-11-19T06:04:01;12.00;99.90
5226;DHT22;2632;51.666;7.146;2023-11-19T06:06:28;11.90;99.90
5226;DHT22;2632;51.666;7.146;2023-11-19T06:08:55;12.00;99.90
5226;DHT22;2632;51.666;7.146;2023-11-19T06:11:22;11.90;99.90
5226;DHT22;2632;51.666;7.146;2023-11-19T06:13:48;11.90;99.90
5226;DHT22;2632;51.666;7.146;2023-11-19T06:16:16;12.00;99.90
5226;DHT22;2632;51.666;7.146;2023-11-19T06:18:43;12.00;99.90
5226;DHT22;2632;51.666;7.146;2023-11-19T06:21:12;12.00;99.90
5226;DHT22;2632;51.666;7.146;2023-11-19T06:23:39;11.90;99.90
5226;DHT22;2632;51.666;7.146;2023-11-19T06:26:05;12.00;99.90
5226;DHT22;2632;51.666;7.146;2023-11-19T06:28:32;11.90;99.90
5226;DHT22;2632;51.666;7.146;2023-11-19T06:30:59;11.90;99.90
5226;DHT22;2632;51.666;7.146;2023-11-19T06:33:25;12.00;99.90
5226;DHT22;2632;51.666;7.146;2023-11-19T06:35:53;12.00;99.90
5226;DHT22;2632;51.666;7.146;2023-11-19T06:38:21;12.00;99.90
5226;DHT22;2632;51.666;7.146;2023-11-19T06:40:47;12.00;99.90
5226;DHT22;2632;51.666;7.146;2023-11-19T06:43:19;11.90;99.90
5226;DHT22;2632;51.666;7.146;2023-11-19T06:45:46;11.90;99.90
5226;DHT22;2632;51.666;7.146;2023-11-19T06:48:12;11.90;99.90
5226;DHT22;2632;51.666;7.146;2023-11-19T06:50:39;12.00;99.90
5226;DHT22;2632;51.666;7.146;2023-11-19T06:53:05;11.90;99.90
5226;DHT22;2632;51.666;7.146;2023-11-19T06:55:36;11.90;99.90
5226;DHT22;2632;51.666;7.146;2023-11-19T06:58:03;12.00;99.90
5226;DHT22;2632;51.666;7.146;2023-11-19T07:00:30;12.00;99.90
5226;DHT22;2632;51.666;7.146;2023-11-19T07:02:59;12.00;99.90
5226;DHT22;2632;51.666;7.146;2023-11-19T07:05:26;12.00;99.90
5226;DHT22;2632;51.666;7.146;2023-11-19T07:07:53;12.00;99.90
5226;DHT22;2632;51.666;7.146;2023-11-19T07:10:21;12.00;99.90
5226;DHT22;2632;51.666;7.146;2023-11-19T07:12:47;12.00;99.90
5226;DHT22;2632;51.666;7.146;2023-11-19T07:15:16;12.00;99.90
5226;DHT22;2632;51.666;7.146;2023-11-19T07:17:44;12.00;99.90
5226;DHT22;2632;51.666;7.146;2023-11-19T07:20:11;12.00;99.90
5226;DHT22;2632;51.666;7.146;2023-11-19T07:22:40;12.10;99.90
5226;DHT22;2632;51.666;7.146;2023-11-19T07:25:06;12.10;99.90
5226;DHT22;2632;51.666;7.146;2023-11-19T07:27:35;12.10;99.90
5226;DHT22;2632;51.666;7.146;2023-11-19T07:30:01;12.20;99.90
5226;DHT22;2632;51.666;7.146;2023-11-19T07:32:28;12.10;99.90
5226;DHT22;2632;51.666;7.146;2023-11-19T07:34:55;12.10;99.90
5226;DHT22;2632;51.666;7.146;2023-11-19T07:37:22;12.10;99.90
5226;DHT22;2632;51.666;7.146;2023-11-19T07:39:49;12.10;99.90
5226;DHT22;2632;51.666;7.146;2023-11-19T07:42:16;12.10;99.90
5226;DHT22;2632;51.666;7.146;2023-11-19T07:44:45;12.10;99.90
5226;DHT22;2632;51.666;7.146;2023-11-19T07:47:12;12.10;99.90
5226;DHT22;2632;51.666;7.146;2023-11-19T07:49:39;12.10;99.90
5226;DHT22;2632;51.666;7.146;2023-11-19T07:52:06;12.10;99.90
5226;DHT22;2632;51.666;7.146;2023-11-19T07:54:47;12.20;99.90
5226;DHT22;2632;51.666;7.146;2023-11-19T07:57:14;12.20;99.90
5226;DHT22;2632;51.666;7.146;2023-11-19T07:59:41;12.30;99.90
5226;DHT22;2632;51.666;7.146;2023-11-19T08:02:07;12.30;99.90
5226;DHT22;2632;51.666;7.146;2023-11-19T08:04:34;12.30;99.90
5226;DHT22;2632;51.666;7.146;2023-11-19T08:07:01;12.40;99.90
5226;DHT22;2632;51.666;7.146;2023-11-19T08:09:28;12.30;99.90
5226;DHT22;2632;51.666;7.146;2023-11-19T08:11:55;12.30;99.90
5226;DHT22;2632;51.666;7.146;2023-11-19T08:14:23;12.40;99.90
5226;DHT22;2632;51.666;7.146;2023-11-19T08:16:50;12.40;99.90
5226;DHT22;2632;51.666;7.146;2023-11-19T08:19:17;12.40;99.90
5226;DHT22;2632;51.666;7.146;2023-11-19T08:21:44;12.40;99.90
5226;DHT22;2632;51.666;7.146;2023-11-19T08:24:11;12.40;99.90
5226;DHT22;2632;51.666;7.146;2023-11-19T08:26:37;12.50;99.90
5226;DHT22;2632;51.666;7.146;2023-11-19T08:29:04;12.50;99.90
5226;DHT22;2632;51.666;7.146;2023-11-19T08:31:31;12.50;99.90
5226;DHT22;2632;51.666;7.146;2023-11-19T08:33:58;12.50;99.90
5226;DHT22;2632;51.666;7.146;2023-11-19T08:36:24;12.40;99.90
5226;DHT22;2632;51.666;7.146;2023-11-19T08:38:51;12.40;99.90
5226;DHT22;2632;51.666;7.146;2023-11-19T08:41:18;12.40;99.90
5226;DHT22;2632;51.666;7.146;2023-11-19T08:43:45;12.50;99.90
5226;DHT22;2632;51.666;7.146;2023-11-19T08:46:12;12.60;99.90
5226;DHT22;2632;51.666;7.146;2023-11-19T08:48:39;12.50;99.90
5226;DHT22;2632;51.666;7.146;2023-11-19T08:51:06;12.60;99.90
5226;DHT22;2632;51.666;7.146;2023-11-19T08:53:33;12.60;99.90
5226;DHT22;2632;51.666;7.146;2023-11-19T08:56:01;12.60;99.90
5226;DHT22;2632;51.666;7.146;2023-11-19T08:58:29;12.70;99.90
5226;DHT22;2632;51.666;7.146;2023-11-19T09:00:57;12.80;99.90
5226;DHT22;2632;51.666;7.146;2023-11-19T09:03:24;12.90;99.90
5226;DHT22;2632;51.666;7.146;2023-11-19T09:05:56;13.00;99.90
5226;DHT22;2632;51.666;7.146;2023-11-19T09:08:23;13.10;99.90
5226;DHT22;2632;51.666;7.146;2023-11-19T09:10:50;13.40;99.90
5226;DHT22;2632;51.666;7.146;2023-11-19T09:13:17;13.50;99.90
5226;DHT22;2632;51.666;7.146;2023-11-19T09:15:44;13.50;99.90
5226;DHT22;2632;51.666;7.146;2023-11-19T09:18:11;13.70;99.90
5226;DHT22;2632;51.666;7.146;2023-11-19T09:20:39;13.70;99.90
5226;DHT22;2632;51.666;7.146;2023-11-19T09:23:06;13.50;99.90
5226;DHT22;2632;51.666;7.146;2023-11-19T09:25:34;13.40;99.90
5226;DHT22;2632;51.666;7.146;2023-11-19T09:28:04;13.40;99.90
5226;DHT22;2632;51.666;7.146;2023-11-19T09:30:30;13.40;99.90
5226;DHT22;2632;51.666;7.146;2023-11-19T09:33:00;13.20;99.90
5226;DHT22;2632;51.666;7.146;2023-11-19T09:35:27;13.00;99.90
5226;DHT22;2632;51.666;7.146;2023-11-19T09:37:53;13.00;99.90
5226;DHT22;2632;51.666;7.146;2023-11-19T09:40:20;12.90;99.90
5226;DHT22;2632;51.666;7.146;2023-11-19T09:42:47;12.90;99.90
5226;DHT22;2632;51.666;7.146;2023-11-19T09:45:16;13.10;99.90
5226;DHT22;2632;51.666;7.146;2023-11-19T09:47:46;13.20;99.90
5226;DHT22;2632;51.666;7.146;2023-11-19T09:50:17;13.30;99.90
5226;DHT22;2632;51.666;7.146;2023-11-19T09:52:46;13.30;99.90
5226;DHT22;2632;51.666;7.146;2023-11-19T09:55:14;13.30;99.90
5226;DHT22;2632;51.666;7.146;2023-11-19T09:57:41;13.30;99.90
5226;DHT22;2632;51.666;7.146;2023-11-19T10:00:11;13.30;99.90
5226;DHT22;2632;51.666;7.146;2023-11-19T10:02:39;13.30;99.90
5226;DHT22;2632;51.666;7.146;2023-11-19T10:05:07;13.30;99.90
5226;DHT22;2632;51.666;7.146;2023-11-19T10:07:34;13.40;99.90
5226;DHT22;2632;51.666;7.146;2023-11-19T10:10:02;13.30;99.90
5226;DHT22;2632;51.666;7.146;2023-11-19T10:12:30;13.80;99.90
5226;DHT22;2632;51.666;7.146;2023-11-19T10:14:57;13.10;99.90
5226;DHT22;2632;51.666;7.146;2023-11-19T10:17:34;13.10;99.90
5226;DHT22;2632;51.666;7.146;2023-11-19T10:20:01;13.10;99.90
5226;DHT22;2632;51.666;7.146;2023-11-19T10:22:29;13.10;99.90
5226;DHT22;2632;51.666;7.146;2023-11-19T10:24:56;13.10;99.90
5226;DHT22;2632;51.666;7.146;2023-11-19T10:27:26;13.10;99.90
5226;DHT22;2632;51.666;7.146;2023-11-19T10:29:59;13.00;99.90
5226;DHT22;2632;51.666;7.146;2023-11-19T10:32:26;14.00;99.90
5226;DHT22;2632;51.666;7.146;2023-11-19T10:35:05;12.90;99.90
5226;DHT22;2632;51.666;7.146;2023-11-19T10:37:33;12.90;99.90
5226;DHT22;2632;51.666;7.146;2023-11-19T10:40:02;12.90;99.90
5226;DHT22;2632;51.666;7.146;2023-11-19T10:42:31;13.00;99.90
5226;DHT22;2632;51.666;7.146;2023-11-19T10:44:58;13.00;99.90
5226;DHT22;2632;51.666;7.146;2023-11-19T10:47:25;13.00;99.90
5226;DHT22;2632;51.666;7.146;2023-11-19T10:49:55;13.00;99.90
5226;DHT22;2632;51.666;7.146;2023-11-19T10:52:22;13.00;99.90
5226;DHT22;2632;51.666;7.146;2023-11-19T10:54:50;13.10;99.90
5226;DHT22;2632;51.666;7.146;2023-11-19T10:57:21;13.20;99.90
5226;DHT22;2632;51.666;7.146;2023-11-19T10:59:52;13.60;99.90
5226;DHT22;2632;51.666;7.146;2023-11-19T11:02:24;14.90;99.90
5226;DHT22;2632;51.666;7.146;2023-11-19T11:04:54;14.50;99.90
5226;DHT22;2632;51.666;7.146;2023-11-19T11:07:24;14.20;99.90
5226;DHT22;2632;51.666;7.146;2023-11-19T11:10:02;13.80;99.90
5226;DHT22;2632;51.666;7.146;2023-11-19T11:12:36;13.60;99.90
5226;DHT22;2632;51.666;7.146;2023-11-19T11:15:05;13.50;99.90
5226;DHT22;2632;51.666;7.146;2023-11-19T11:17:33;13.60;99.90
5226;DHT22;2632;51.666;7.146;2023-11-19T11:20:01;13.50;99.90
5226;DHT22;2632;51.666;7.146;2023-11-19T11:22:35;13.50;99.90
5226;DHT22;2632;51.666;7.146;2023-11-19T11:25:45;13.40;99.90
5226;DHT22;2632;51.666;7.146;2023-11-19T11:28:18;13.50;99.90
5226;DHT22;2632;51.666;7.146;2023-11-19T11:31:01;13.50;99.90
5226;DHT22;2632;51.666;7.146;2023-11-19T11:36:31;13.50;99.90
5226;DHT22;2632;51.666;7.146;2023-11-19T11:39:05;13.60;99.90
5226;DHT22;2632;51.666;7.146;2023-11-19T11:41:34;13.70;99.90
5226;DHT22;2632;51.666;7.146;2023-11-19T11:44:01;13.80;99.90
5226;DHT22;2632;51.666;7.146;2023-11-19T11:49:05;14.00;99.90
5226;DHT22;2632;51.666;7.146;2023-11-19T11:57:03;13.90;99.90
5226;DHT22;2632;51.666;7.146;2023-11-19T11:59:37;13.80;99.90
5226;DHT22;2632;51.666;7.146;2023-11-19T12:02:08;13.70;99.90
5226;DHT22;2632;51.666;7.146;2023-11-19T12:04:36;13.80;99.90
5226;DHT22;2632;51.666;7.146;2023-11-19T12:07:08;14.50;99.90
5226;DHT22;2632;51.666;7.146;2023-11-19T12:09:42;14.90;99.90
5226;DHT22;2632;51.666;7.146;2023-11-19T12:12:22;15.00;99.90
5226;DHT22;2632;51.666;7.146;2023-11-19T12:15:05;14.70;99.90
5226;DHT22;2632;51.666;7.146;2023-11-19T12:20:04;14.30;99.90
5226;DHT22;2632;51.666;7.146;2023-11-19T12:22:32;14.40;99.90
5226;DHT22;2632;51.666;7.146;2023-11-19T12:25:00;14.40;99.90
5226;DHT22;2632;51.666;7.146;2023-11-19T12:27:26;14.40;99.90
5226;DHT22;2632;51.666;7.146;2023-11-19T12:29:54;14.30;99.90
5226;DHT22;2632;51.666;7.146;2023-11-19T12:32:23;14.50;99.90
5226;DHT22;2632;51.666;7.146;2023-11-19T12:34:50;14.40;99.90
5226;DHT22;2632;51.666;7.146;2023-11-19T12:37:17;14.30;99.90
5226;DHT22;2632;51.666;7.146;2023-11-19T12:39:43;14.30;99.90
5226;DHT22;2632;51.666;7.146;2023-11-19T12:42:10;14.30;99.90
5226;DHT22;2632;51.666;7.146;2023-11-19T12:44:38;14.30;99.90
5226;DHT22;2632;51.666;7.146;2023-11-19T12:47:07;14.20;99.90
5226;DHT22;2632;51.666;7.146;2023-11-19T12:49:34;14.10;99.90
5226;DHT22;2632;51.666;7.146;2023-11-19T12:52:01;14.00;99.90
5226;DHT22;2632;51.666;7.146;2023-11-19T12:54:37;13.90;99.90
5226;DHT22;2632;51.666;7.146;2023-11-19T12:57:05;13.90;99.90
5226;DHT22;2632;51.666;7.146;2023-11-19T12:59:32;13.80;99.90
5226;DHT22;2632;51.666;7.146;2023-11-19T13:01:58;13.70;99.90
5226;DHT22;2632;51.666;7.146;2023-11-19T13:04:30;13.60;99.90
5226;DHT22;2632;51.666;7.146;2023-11-19T13:07:00;13.50;99.90
5226;DHT22;2632;51.666;7.146;2023-11-19T13:09:31;13.50;99.90
5226;DHT22;2632;51.666;7.146;2023-11-19T13:11:58;13.40;99.90
5226;DHT22;2632;51.666;7.146;2023-11-19T13:14:36;13.50;99.90
5226;DHT22;2632;51.666;7.146;2023-11-19T13:17:04;13.60;99.90
5226;DHT22;2632;51.666;7.146;2023-11-19T13:19:32;13.70;99.90
5226;DHT22;2632;51.666;7.146;2023-11-19T13:21:58;13.70;99.90
5226;DHT22;2632;51.666;7.146;2023-11-19T13:24:25;13.60;99.90
5226;DHT22;2632;51.666;7.146;2023-11-19T13:26:52;13.60;99.90
5226;DHT22;2632;51.666;7.146;2023-11-19T13:29:18;13.60;99.90
5226;DHT22;2632;51.666;7.146;2023-11-19T13:31:45;13.60;99.90
5226;DHT22;2632;51.666;7.146;2023-11-19T13:34:12;14.00;99.90
5226;DHT22;2632;51.666;7.146;2023-11-19T13:36:38;13.90;99.90
5226;DHT22;2632;51.666;7.146;2023-11-19T13:39:05;13.70;99.90
5226;DHT22;2632;51.666;7.146;2023-11-19T13:41:33;13.60;99.90
5226;DHT22;2632;51.666;7.146;2023-11-19T13:44:00;13.70;99.90
5226;DHT22;2632;51.666;7.146;2023-11-19T13:46:27;13.60;99.90
5226;DHT22;2632;51.666;7.146;2023-11-19T13:48:54;13.60;99.90
5226;DHT22;2632;51.666;7.146;2023-11-19T13:51:20;13.60;99.90
5226;DHT22;2632;51.666;7.146;2023-11-19T13:53:47;13.50;99.90
5226;DHT22;2632;51.666;7.146;2023-11-19T13:56:18;13.40;99.90
5226;DHT22;2632;51.666;7.146;2023-11-19T13:58:44;13.50;99.90
5226;DHT22;2632;51.666;7.146;2023-11-19T14:01:11;13.50;99.90
5226;DHT22;2632;51.666;7.146;2023-11-19T14:03:39;13.40;99.90
5226;DHT22;2632;51.666;7.146;2023-11-19T14:06:07;13.40;99.90
5226;DHT22;2632;51.666;7.146;2023-11-19T14:08:34;13.30;99.90
5226;DHT22;2632;51.666;7.146;2023-11-19T14:11:01;13.30;99.90
5226;DHT22;2632;51.666;7.146;2023-11-19T14:13:28;13.30;99.90
5226;DHT22;2632;51.666;7.146;2023-11-19T14:15:55;13.40;99.90
5226;DHT22;2632;51.666;7.146;2023-11-19T14:18:22;13.40;99.90
5226;DHT22;2632;51.666;7.146;2023-11-19T14:20:49;13.30;99.90
5226;DHT22;2632;51.666;7.146;2023-11-19T14:23:16;13.30;99.90
5226;DHT22;2632;51.666;7.146;2023-11-19T14:25:43;13.30;99.90
5226;DHT22;2632;51.666;7.146;2023-11-19T14:28:10;13.30;99.90
5226;DHT22;2632;51.666;7.146;2023-11-19T14:30:36;13.30;99.90
5226;DHT22;2632;51.666;7.146;2023-11-19T14:33:03;13.30;99.90
5226;DHT22;2632;51.666;7.146;2023-11-19T14:35:31;13.30;99.90
5226;DHT22;2632;51.666;7.146;2023-11-19T14:38:00;13.30;99.90
5226;DHT22;2632;51.666;7.146;2023-11-19T14:40:31;13.20;99.90
5226;DHT22;2632;51.666;7.146;2023-11-19T14:43:00;13.20;99.90
5226;DHT22;2632;51.666;7.146;2023-11-19T14:45:27;13.20;99.90
5226;DHT22;2632;51.666;7.146;2023-11-19T14:47:56;13.20;99.90
5226;DHT22;2632;51.666;7.146;2023-11-19T14:50:23;13.20;99.90
5226;DHT22;2632;51.666;7.146;2023-11-19T14:52:50;13.10;99.90
5226;DHT22;2632;51.666;7.146;2023-11-19T14:55:17;13.10;99.90
5226;DHT22;2632;51.666;7.146;2023-11-19T14:57:43;13.00;99.90
5226;DHT22;2632;51.666;7.146;2023-11-19T15:00:23;13.00;99.90
5226;DHT22;2632;51.666;7.146;2023-11-19T15:02:52;12.90;99.90
5226;DHT22;2632;51.666;7.146;2023-11-19T15:05:18;12.90;99.90
5226;DHT22;2632;51.666;7.146;2023-11-19T15:07:46;12.90;99.90
5226;DHT22;2632;51.666;7.146;2023-11-19T15:10:12;12.80;99.90
5226;DHT22;2632;51.666;7.146;2023-11-19T15:12:39;12.80;99.90
5226;DHT22;2632;51.666;7.146;2023-11-19T15:15:09;12.70;99.90
5226;DHT22;2632;51.666;7.146;2023-11-19T15:18:00;12.70;99.90
5226;DHT22;2632;51.666;7.146;2023-11-19T15:20:27;12.70;99.90
5226;DHT22;2632;51.666;7.146;2023-11-19T15:22:57;12.60;99.90
5226;DHT22;2632;51.666;7.146;2023-11-19T15:25:24;12.60;99.90
5226;DHT22;2632;51.666;7.146;2023-11-19T15:27:51;12.60;99.90
5226;DHT22;2632;51.666;7.146;2023-11-19T15:30:18;12.60;99.90
5226;DHT22;2632;51.666;7.146;2023-11-19T15:32:44;12.60;99.90
5226;DHT22;2632;51.666;7.146;2023-11-19T15:35:12;12.60;99.90
5226;DHT22;2632;51.666;7.146;2023-11-19T15:37:40;12.60;99.90
5226;DHT22;2632;51.666;7.146;2023-11-19T15:40:10;12.60;99.90
5226;DHT22;2632;51.666;7.146;2023-11-19T15:42:39;12.60;99.90
5226;DHT22;2632;51.666;7.146;2023-11-19T15:45:06;12.60;99.90
5226;DHT22;2632;51.666;7.146;2023-11-19T15:47:34;12.50;99.90
5226;DHT22;2632;51.666;7.146;2023-11-19T15:50:04;12.50;99.90
5226;DHT22;2632;51.666;7.146;2023-11-19T15:52:31;12.50;99.90
5226;DHT22;2632;51.666;7.146;2023-11-19T15:54:58;12.50;99.90
5226;DHT22;2632;51.666;7.146;2023-11-19T15:57:24;12.50;99.90
5226;DHT22;2632;51.666;7.146;2023-11-19T15:59:51;12.50;99.90
5226;DHT22;2632;51.666;7.146;2023-11-19T16:02:18;12.40;99.90
5226;DHT22;2632;51.666;7.146;2023-11-19T16:04:45;12.40;99.90
5226;DHT22;2632;51.666;7.146;2023-11-19T16:07:14;12.40;99.90
5226;DHT22;2632;51.666;7.146;2023-11-19T16:09:41;12.40;99.90
5226;DHT22;2632;51.666;7.146;2023-11-19T16:12:08;12.40;99.90
5226;DHT22;2632;51.666;7.146;2023-11-19T16:14:35;12.40;99.90
5226;DHT22;2632;51.666;7.146;2023-11-19T16:17:02;12.40;99.90
5226;DHT22;2632;51.666;7.146;2023-11-19T16:19:28;12.40;99.90
5226;DHT22;2632;51.666;7.146;2023-11-19T16:21:55;12.30;99.90